createdAt,value
2022-09-27T00:01:15.777Z,2.05
2022-09-27T00:03:45.094Z,2.38
2022-09-27T00:06:17.691Z,2.50
2022-09-27T00:08:45.961Z,2.70
2022-09-27T00:11:24.371Z,2.55
2022-09-27T00:13:52.653Z,2.50
2022-09-27T00:16:21.137Z,2.53
2022-09-27T00:18:49.472Z,2.50
2022-09-27T00:21:19.354Z,2.53
2022-09-27T00:23:47.627Z,2.10
2022-09-27T00:26:15.973Z,2.60
2022-09-27T00:28:44.371Z,2.70
2022-09-27T00:31:21.858Z,2.42
2022-09-27T00:33:51.256Z,2.22
2022-09-27T00:36:23.221Z,2.53
2022-09-27T00:38:51.818Z,2.40
2022-09-27T00:41:23.679Z,2.33
2022-09-27T00:43:54.999Z,2.47
2022-09-27T00:46:30.827Z,2.80
2022-09-27T00:49:09.282Z,2.60
2022-09-27T00:51:40.745Z,2.95
2022-09-27T00:54:14.167Z,2.55
2022-09-27T00:56:44.709Z,2.67
2022-09-27T00:59:18.299Z,2.42
2022-09-27T01:01:47.144Z,2.40
2022-09-27T01:04:22.654Z,2.70
2022-09-27T01:06:52.819Z,2.40
2022-09-27T01:09:22.432Z,2.60
2022-09-27T01:11:59.394Z,2.53
2022-09-27T01:15:00.368Z,2.05
2022-09-27T01:17:44.933Z,2.35
2022-09-27T01:20:48.312Z,2.30
2022-09-27T01:23:43.926Z,1.85
2022-09-27T01:26:20.547Z,2.40
2022-09-27T01:29:02.248Z,2.25
2022-09-27T01:31:41.494Z,2.60
2022-09-27T01:34:20.884Z,2.17
2022-09-27T01:36:56.952Z,2.20
2022-09-27T01:39:38.953Z,2.40
2022-09-27T01:42:19.802Z,2.22
2022-09-27T01:47:28.295Z,1.90
2022-09-27T01:50:04.400Z,2.05
2022-09-27T01:52:40.218Z,2.20
2022-09-27T01:55:12.825Z,2.22
2022-09-27T01:57:46.151Z,2.03
2022-09-27T02:00:15.459Z,2.28
2022-09-27T02:02:51.251Z,2.40
2022-09-27T02:05:22.049Z,1.90
2022-09-27T02:07:57.680Z,2.13
2022-09-27T02:10:32.508Z,2.08
2022-09-27T02:13:15.166Z,2.25
2022-09-27T02:15:58.723Z,2.05
2022-09-27T02:18:35.057Z,2.00
2022-09-27T02:21:08.876Z,1.98
2022-09-27T02:23:42.678Z,1.98
2022-09-27T02:26:17.932Z,2.10
2022-09-27T02:28:53.784Z,2.10
2022-09-27T02:31:22.275Z,2.00
2022-09-27T02:33:59.206Z,1.90
2022-09-27T02:36:27.536Z,2.30
2022-09-27T02:38:56.737Z,1.90
2022-09-27T02:41:25.045Z,2.00
2022-09-27T02:44:00.925Z,1.90
2022-09-27T02:46:53.684Z,1.95
2022-09-27T02:49:41.527Z,1.80
2022-09-27T02:52:28.813Z,1.75
2022-09-27T02:55:09.218Z,1.90
2022-09-27T02:57:49.476Z,2.28
2022-09-27T03:00:21.670Z,1.70
2022-09-27T03:03:00.479Z,1.80
2022-09-27T03:05:35.107Z,1.67
2022-09-27T03:08:04.678Z,1.65
2022-09-27T03:10:32.925Z,1.75
2022-09-27T03:13:01.301Z,1.58
2022-09-27T03:15:29.571Z,1.58
2022-09-27T03:17:57.816Z,1.35
2022-09-27T03:20:26.164Z,1.48
2022-09-27T03:22:56.407Z,1.80
2022-09-27T03:25:24.740Z,1.30
2022-09-27T03:27:52.978Z,1.45
2022-09-27T03:30:21.476Z,1.25
2022-09-27T03:32:49.802Z,1.63
2022-09-27T03:35:18.079Z,1.20
2022-09-27T03:37:47.241Z,1.42
2022-09-27T03:40:17.469Z,1.25
2022-09-27T03:42:49.658Z,1.35
2022-09-27T03:45:18.441Z,1.42
2022-09-27T03:47:47.172Z,1.30
2022-09-27T03:50:16.394Z,1.30
2022-09-27T03:52:45.644Z,1.17
2022-09-27T03:55:16.180Z,1.35
2022-09-27T03:57:47.321Z,1.40
2022-09-27T04:00:17.211Z,1.20
2022-09-27T04:02:45.821Z,1.17
2022-09-27T04:05:14.217Z,1.65
2022-09-27T04:07:46.715Z,1.20
2022-09-27T04:10:17.313Z,1.27
2022-09-27T04:12:46.129Z,1.55
2022-09-27T04:15:14.664Z,1.10
2022-09-27T04:17:43.615Z,1.42
2022-09-27T04:20:12.663Z,1.20
2022-09-27T04:22:44.017Z,1.20
2022-09-27T04:25:12.564Z,1.30
2022-09-27T04:27:46.724Z,1.30
2022-09-27T04:30:15.936Z,1.50
2022-09-27T04:32:44.687Z,1.45
2022-09-27T04:35:31.828Z,1.40
2022-09-27T04:38:00.419Z,1.30
2022-09-27T04:40:29.224Z,1.30
2022-09-27T04:42:58.890Z,1.67
2022-09-27T04:45:27.310Z,1.10
2022-09-27T04:47:55.538Z,1.10
2022-09-27T04:50:24.366Z,1.20
2022-09-27T04:52:54.163Z,1.20
2022-09-27T04:55:23.704Z,1.48
2022-09-27T04:57:52.158Z,1.40
2022-09-27T05:00:23.123Z,1.60
2022-09-27T05:02:51.450Z,1.20
2022-09-27T05:05:19.719Z,1.50
2022-09-27T05:07:48.015Z,1.40
2022-09-27T05:10:16.930Z,1.25
2022-09-27T05:12:45.972Z,1.17
2022-09-27T05:15:14.264Z,1.25
2022-09-27T05:17:44.063Z,1.30
2022-09-27T05:20:12.461Z,1.10
2022-09-27T05:22:41.776Z,1.30
2022-09-27T05:25:10.882Z,1.50
2022-09-27T05:27:39.410Z,1.15
2022-09-27T05:30:08.953Z,1.20
2022-09-27T05:32:37.288Z,1.00
2022-09-27T05:35:08.213Z,1.13
2022-09-27T05:37:36.498Z,1.40
2022-09-27T05:40:22.474Z,1.13
2022-09-27T05:42:55.671Z,1.40
2022-09-27T05:45:25.860Z,1.30
2022-09-27T05:47:55.744Z,1.35
2022-09-27T05:50:26.483Z,1.30
2022-09-27T05:52:55.781Z,1.10
2022-09-27T05:55:24.093Z,1.23
2022-09-27T05:57:57.594Z,1.00
2022-09-27T06:00:27.020Z,1.23
2022-09-27T06:02:57.245Z,1.77
2022-09-27T06:05:29.612Z,1.75
2022-09-27T06:08:01.644Z,1.60
2022-09-27T06:10:32.582Z,1.25
2022-09-27T06:13:02.334Z,1.45
2022-09-27T06:15:31.444Z,1.35
2022-09-27T06:18:04.626Z,1.40
2022-09-27T06:20:35.115Z,1.58
2022-09-27T06:23:07.854Z,1.52
2022-09-27T06:25:36.337Z,1.52
2022-09-27T06:28:05.714Z,1.30
2022-09-27T06:30:34.439Z,1.60
2022-09-27T06:33:04.167Z,1.52
2022-09-27T06:35:36.332Z,1.50
2022-09-27T06:38:07.356Z,1.30
2022-09-27T06:40:35.953Z,1.50
2022-09-27T06:43:05.146Z,1.25
2022-09-27T06:45:35.547Z,1.30
2022-09-27T06:48:04.106Z,1.30
2022-09-27T06:50:36.951Z,1.20
2022-09-27T06:55:34.582Z,1.40
2022-09-27T06:58:21.432Z,1.67
2022-09-27T07:00:53.294Z,1.50
2022-09-27T07:03:23.885Z,1.20
2022-09-27T07:06:01.041Z,1.30
2022-09-27T07:08:30.441Z,1.35
2022-09-27T07:11:03.985Z,1.13
2022-09-27T07:13:34.419Z,1.60
2022-09-27T07:16:03.250Z,1.48
2022-09-27T07:18:31.697Z,1.42
2022-09-27T07:21:02.543Z,1.20
2022-09-27T07:23:30.805Z,1.13
2022-09-27T07:26:05.265Z,1.23
2022-09-27T07:28:34.199Z,1.15
2022-09-27T07:31:03.818Z,1.77
2022-09-27T07:33:32.964Z,2.10
2022-09-27T07:36:07.515Z,1.20
2022-09-27T07:38:35.881Z,0.70
2022-09-27T07:41:08.333Z,0.85
2022-09-27T07:43:36.632Z,1.40
2022-09-27T07:46:05.029Z,1.05
2022-09-27T07:48:33.337Z,1.10
2022-09-27T07:51:03.073Z,1.15
2022-09-27T07:53:31.323Z,1.08
2022-09-27T07:55:59.617Z,0.70
2022-09-27T07:58:28.858Z,0.60
2022-09-27T08:00:57.143Z,0.60
2022-09-27T08:03:25.536Z,0.73
2022-09-27T08:05:53.788Z,0.82
2022-09-27T08:08:24.271Z,0.50
2022-09-27T08:10:52.535Z,0.90
2022-09-27T08:13:21.038Z,0.90
2022-09-27T08:15:50.115Z,1.55
2022-09-27T08:18:18.522Z,1.10
2022-09-27T08:20:47.601Z,1.00
2022-09-27T08:23:15.883Z,0.93
2022-09-27T08:25:45.518Z,1.02
2022-09-27T08:28:13.780Z,0.98
2022-09-27T08:30:42.043Z,1.25
2022-09-27T08:33:10.962Z,0.95
2022-09-27T08:35:39.196Z,1.02
2022-09-27T08:38:07.511Z,1.30
2022-09-27T08:40:54.571Z,0.85
2022-09-27T08:43:36.695Z,0.70
2022-09-27T08:46:22.120Z,1.25
2022-09-27T08:48:57.011Z,0.95
2022-09-27T08:51:31.950Z,0.73
2022-09-27T08:54:07.034Z,1.00
2022-09-27T08:56:37.392Z,0.77
2022-09-27T08:59:14.598Z,0.88
2022-09-27T09:01:43.605Z,1.10
2022-09-27T09:04:13.628Z,0.82
2022-09-27T09:06:53.365Z,0.50
2022-09-27T09:09:31.525Z,0.90
2022-09-27T09:12:32.132Z,1.08
2022-09-27T09:15:21.954Z,1.35
2022-09-27T09:18:12.137Z,1.33
2022-09-27T09:20:58.451Z,0.88
2022-09-27T09:23:55.285Z,1.33
2022-09-27T09:26:33.911Z,0.98
2022-09-27T09:29:20.563Z,1.60
2022-09-27T09:31:59.202Z,1.45
2022-09-27T09:34:33.666Z,1.38
2022-09-27T09:37:06.938Z,2.20
2022-09-27T09:39:42.299Z,1.30
2022-09-27T09:42:16.106Z,0.95
2022-09-27T09:44:54.245Z,0.88
2022-09-27T09:47:35.821Z,0.85
2022-09-27T09:50:17.129Z,0.98
2022-09-27T09:52:51.777Z,0.85
2022-09-27T09:55:24.153Z,1.10
2022-09-27T09:58:04.006Z,1.55
2022-09-27T10:00:33.824Z,2.03
2022-09-27T10:03:04.479Z,1.67
2022-09-27T10:05:34.073Z,0.90
2022-09-27T10:08:07.898Z,1.50
2022-09-27T10:10:36.357Z,0.70
2022-09-27T10:13:05.489Z,0.82
2022-09-27T10:15:36.021Z,1.70
2022-09-27T10:18:04.325Z,0.82
2022-09-27T10:20:37.972Z,0.68
2022-09-27T10:23:14.525Z,1.05
2022-09-27T10:25:53.425Z,0.40
2022-09-27T10:28:37.346Z,0.60
2022-09-27T10:31:09.546Z,0.75
2022-09-27T10:33:40.961Z,1.08
2022-09-27T10:36:26.994Z,1.00
2022-09-27T10:38:58.780Z,1.15
2022-09-27T10:41:33.051Z,1.98
2022-09-27T10:44:25.443Z,0.93
2022-09-27T10:46:59.482Z,2.67
2022-09-27T10:49:32.285Z,2.75
2022-09-27T10:54:41.737Z,0.75
2022-09-27T10:57:21.423Z,0.77
2022-09-27T10:59:56.852Z,0.90
2022-09-27T11:02:30.338Z,0.65
2022-09-27T11:05:14.716Z,0.85
2022-09-27T11:07:52.808Z,0.57
2022-09-27T11:10:35.131Z,0.52
2022-09-27T11:13:14.466Z,0.50
2022-09-27T11:16:05.941Z,1.58
2022-09-27T11:18:48.233Z,1.25
2022-09-27T11:21:28.673Z,1.63
2022-09-27T11:24:16.942Z,0.60
2022-09-27T11:27:00.258Z,0.85
2022-09-27T11:29:44.523Z,0.57
2022-09-27T11:32:27.819Z,0.68
2022-09-27T11:35:22.889Z,0.60
2022-09-27T11:38:02.358Z,0.80
2022-09-27T11:40:44.725Z,1.00
2022-09-27T11:43:35.191Z,0.75
2022-09-27T11:46:27.422Z,1.00
2022-09-27T11:49:39.708Z,1.00
2022-09-27T11:52:23.720Z,0.60
2022-09-27T11:55:16.585Z,0.63
2022-09-27T11:57:53.439Z,0.43
2022-09-27T12:00:24.873Z,0.60
2022-09-27T12:03:42.505Z,0.40
2022-09-27T12:06:14.420Z,0.80
2022-09-27T12:09:02.596Z,1.00
2022-09-27T12:11:38.616Z,0.50
2022-09-27T12:14:17.612Z,0.75
2022-09-27T12:16:49.632Z,0.50
2022-09-27T12:19:24.049Z,0.60
2022-09-27T12:21:52.515Z,0.60
2022-09-27T12:24:24.470Z,0.50
2022-09-27T12:26:58.080Z,0.40
2022-09-27T12:29:32.164Z,1.00
2022-09-27T12:32:12.400Z,0.47
2022-09-27T12:34:46.221Z,0.77
2022-09-27T12:37:20.504Z,0.63
2022-09-27T12:39:56.545Z,0.82
2022-09-27T12:42:30.160Z,0.45
2022-09-27T12:45:00.416Z,0.50
2022-09-27T12:47:57.496Z,0.82
2022-09-27T12:50:33.708Z,0.47
2022-09-27T12:53:10.635Z,0.50
2022-09-27T12:56:11.749Z,0.40
2022-09-27T12:59:12.151Z,0.70
2022-09-27T13:02:30.884Z,0.75
2022-09-27T13:05:35.324Z,0.68
2022-09-27T13:08:25.598Z,0.60
2022-09-27T13:11:06.713Z,0.60
2022-09-27T13:13:36.896Z,0.50
2022-09-27T13:16:06.121Z,0.50
2022-09-27T13:18:56.207Z,0.60
2022-09-27T13:21:59.645Z,0.60
2022-09-27T13:27:42.846Z,0.70
2022-09-27T13:30:47.397Z,0.55
2022-09-27T13:33:47.303Z,0.40
2022-09-27T13:36:30.591Z,0.50
2022-09-27T13:39:23.183Z,0.40
2022-09-27T13:42:31.805Z,0.50
2022-09-27T13:45:20.272Z,0.50
2022-09-27T13:47:51.261Z,0.88
2022-09-27T13:50:26.619Z,0.45
2022-09-27T13:53:06.959Z,0.40
2022-09-27T13:55:46.457Z,0.40
2022-09-27T13:58:31.229Z,0.45
2022-09-27T14:01:04.649Z,0.60
2022-09-27T14:03:57.973Z,0.60
2022-09-27T14:06:32.215Z,0.90
2022-09-27T14:09:05.562Z,0.63
2022-09-27T14:11:39.503Z,0.55
2022-09-27T14:14:16.710Z,0.60
2022-09-27T14:16:47.526Z,0.70
2022-09-27T14:19:19.495Z,0.47
2022-09-27T14:21:48.965Z,0.55
2022-09-27T14:24:26.877Z,0.80
2022-09-27T14:27:12.665Z,0.60
2022-09-27T14:29:46.717Z,1.45
2022-09-27T14:32:18.069Z,1.10
2022-09-27T14:34:46.976Z,0.90
2022-09-27T14:37:24.698Z,0.70
2022-09-27T14:40:00.229Z,0.73
2022-09-27T14:42:32.976Z,1.10
2022-09-27T14:47:34.224Z,0.60
2022-09-27T14:50:18.859Z,0.70
2022-09-27T14:52:49.040Z,0.50
2022-09-27T14:55:22.086Z,0.85
2022-09-27T14:57:54.678Z,0.60
2022-09-27T15:00:26.444Z,0.52
2022-09-27T15:02:59.081Z,1.20
2022-09-27T15:07:59.218Z,0.50
2022-09-27T15:10:31.392Z,0.85
2022-09-27T15:13:04.624Z,0.60
2022-09-27T15:15:35.743Z,0.60
2022-09-27T15:18:05.647Z,0.73
2022-09-27T15:20:36.422Z,0.40
2022-09-27T15:23:06.994Z,0.52
2022-09-27T15:25:39.132Z,0.40
2022-09-27T15:28:19.349Z,0.60
2022-09-27T15:30:54.849Z,0.50
2022-09-27T15:33:26.626Z,0.52
2022-09-27T15:35:57.298Z,0.63
2022-09-27T15:38:30.997Z,0.60
2022-09-27T15:41:14.542Z,0.30
2022-09-27T15:43:46.705Z,0.50
2022-09-27T15:46:44.047Z,0.63
2022-09-27T15:49:33.540Z,0.50
2022-09-27T15:52:04.993Z,0.43
2022-09-27T15:54:35.725Z,0.45
2022-09-27T15:57:06.653Z,0.30
2022-09-27T15:59:37.227Z,0.40
2022-09-27T16:02:16.139Z,0.40
2022-09-27T16:04:45.288Z,0.60
2022-09-27T16:07:16.065Z,0.68
2022-09-27T16:09:45.112Z,0.55
2022-09-27T16:12:13.403Z,0.50
2022-09-27T16:14:42.970Z,0.50
2022-09-27T16:17:11.704Z,0.40
2022-09-27T16:19:40.296Z,0.55
2022-09-27T16:22:08.876Z,0.50
2022-09-27T16:24:37.087Z,0.80
2022-09-27T16:27:05.370Z,0.73
2022-09-27T16:29:33.748Z,0.80
2022-09-27T16:32:04.147Z,0.50
2022-09-27T16:34:32.291Z,0.70
2022-09-27T16:37:04.781Z,0.47
2022-09-27T16:39:33.322Z,0.45
2022-09-27T16:42:04.977Z,0.50
2022-09-27T16:44:34.174Z,0.70
2022-09-27T16:47:04.126Z,0.77
2022-09-27T16:49:49.877Z,0.40
2022-09-27T16:52:18.094Z,0.40
2022-09-27T16:54:46.306Z,0.60
2022-09-27T16:57:14.466Z,0.57
2022-09-27T16:59:42.640Z,0.68
2022-09-27T17:02:12.169Z,0.63
2022-09-27T17:04:41.129Z,0.40
2022-09-27T17:07:09.285Z,0.55
2022-09-27T17:09:37.526Z,0.50
2022-09-27T17:12:09.934Z,0.68
2022-09-27T17:14:40.357Z,0.45
2022-09-27T17:17:09.674Z,0.40
2022-09-27T17:19:39.227Z,0.98
2022-09-27T17:22:08.555Z,0.70
2022-09-27T17:24:36.980Z,0.60
2022-09-27T17:27:05.181Z,0.63
2022-09-27T17:29:33.370Z,0.60
2022-09-27T17:32:01.842Z,0.73
2022-09-27T17:34:30.123Z,0.90
2022-09-27T17:37:00.838Z,0.70
2022-09-27T17:39:29.044Z,1.00
2022-09-27T17:41:58.449Z,0.63
2022-09-27T17:44:27.162Z,1.10
2022-09-27T17:47:09.453Z,1.52
2022-09-27T17:49:55.256Z,1.27
2022-09-27T17:52:25.685Z,1.30
2022-09-27T17:54:55.869Z,1.52
2022-09-27T17:57:24.087Z,1.60
2022-09-27T17:59:53.564Z,1.30
2022-09-27T18:02:22.091Z,1.50
2022-09-27T18:04:50.320Z,1.33
2022-09-27T18:07:19.779Z,1.00
2022-09-27T18:09:50.277Z,1.20
2022-09-27T18:12:18.689Z,1.10
2022-09-27T18:14:46.988Z,1.17
2022-09-27T18:17:16.682Z,1.02
2022-09-27T18:19:44.878Z,0.80
2022-09-27T18:22:13.055Z,0.95
2022-09-27T18:24:41.233Z,0.70
2022-09-27T18:27:15.663Z,0.70
2022-09-27T18:29:44.190Z,1.08
2022-09-27T18:32:12.410Z,1.00
2022-09-27T18:34:40.893Z,1.02
2022-09-27T18:37:09.141Z,0.82
2022-09-27T18:39:37.314Z,0.70
2022-09-27T18:42:06.188Z,0.70
2022-09-27T18:44:35.736Z,0.80
2022-09-27T18:47:04.113Z,0.82
2022-09-27T18:49:34.189Z,0.98
2022-09-27T18:52:03.170Z,0.85
2022-09-27T18:54:31.351Z,1.08
2022-09-27T18:56:59.704Z,0.90
2022-09-27T18:59:28.827Z,1.00
2022-09-27T19:01:58.418Z,0.82
2022-09-27T19:04:26.877Z,0.90
2022-09-27T19:06:56.686Z,0.77
2022-09-27T19:09:26.336Z,0.85
2022-09-27T19:11:54.585Z,0.80
2022-09-27T19:14:23.920Z,0.80
2022-09-27T19:16:52.595Z,0.68
2022-09-27T19:19:22.282Z,0.80
2022-09-27T19:21:50.663Z,0.75
2022-09-27T19:24:19.246Z,0.70
2022-09-27T19:26:48.108Z,0.70
2022-09-27T19:29:16.514Z,0.70
2022-09-27T19:31:44.968Z,0.52
2022-09-27T19:34:13.269Z,0.50
2022-09-27T19:36:42.823Z,0.60
2022-09-27T19:39:10.976Z,0.88
2022-09-27T19:41:40.289Z,0.60
2022-09-27T19:44:08.461Z,0.90
2022-09-27T19:46:37.531Z,0.50
2022-09-27T19:49:05.825Z,0.60
2022-09-27T19:51:34.076Z,0.43
2022-09-27T19:54:04.194Z,0.50
2022-09-27T19:56:32.418Z,0.40
2022-09-27T19:59:04.907Z,0.57
2022-09-27T20:01:34.573Z,0.57
2022-09-27T20:04:03.309Z,0.50
2022-09-27T20:06:32.647Z,0.65
2022-09-27T20:09:03.012Z,0.40
2022-09-27T20:11:33.983Z,0.60
2022-09-27T20:14:02.922Z,0.60
2022-09-27T20:16:32.125Z,0.70
2022-09-27T20:19:01.847Z,0.73
2022-09-27T20:21:33.724Z,0.63
2022-09-27T20:24:05.414Z,0.70
2022-09-27T20:26:36.526Z,0.80
2022-09-27T20:29:06.411Z,0.70
2022-09-27T20:31:38.569Z,0.60
2022-09-27T20:34:15.593Z,0.77
2022-09-27T20:36:45.368Z,0.93
2022-09-27T20:39:15.977Z,0.52
2022-09-27T20:41:47.663Z,1.00
2022-09-27T20:44:18.536Z,0.65
2022-09-27T20:46:48.233Z,0.70
2022-09-27T20:49:19.529Z,0.55
2022-09-27T20:51:49.424Z,0.68
2022-09-27T20:54:18.470Z,0.80
2022-09-27T20:56:49.558Z,0.70
2022-09-27T20:59:20.253Z,0.80
2022-09-27T21:01:52.331Z,0.60
2022-09-27T21:04:22.463Z,1.13
2022-09-27T21:06:50.696Z,0.88
2022-09-27T21:09:19.882Z,0.65
2022-09-27T21:11:51.767Z,1.13
2022-09-27T21:14:20.210Z,1.10
2022-09-27T21:16:48.390Z,0.80
2022-09-27T21:19:16.701Z,0.80
2022-09-27T21:21:45.004Z,0.80
2022-09-27T21:24:13.521Z,0.93
2022-09-27T21:26:41.677Z,1.00
2022-09-27T21:29:13.070Z,0.98
2022-09-27T21:31:42.021Z,0.98
2022-09-27T21:34:10.222Z,1.10
2022-09-27T21:36:40.271Z,0.82
2022-09-27T21:39:10.239Z,1.15
2022-09-27T21:41:39.315Z,0.70
2022-09-27T21:44:08.038Z,0.70
2022-09-27T21:46:42.128Z,0.77
2022-09-27T21:49:11.076Z,0.60
2022-09-27T21:51:41.104Z,1.13
2022-09-27T21:54:13.223Z,0.68
2022-09-27T21:56:41.984Z,0.70
2022-09-27T21:59:13.686Z,1.08
2022-09-27T22:01:45.459Z,0.70
2022-09-27T22:04:14.475Z,0.70
2022-09-27T22:06:42.896Z,0.82
2022-09-27T22:09:15.969Z,1.20
2022-09-27T22:11:47.222Z,1.00
2022-09-27T22:14:16.926Z,0.98
2022-09-27T22:16:46.588Z,0.80
2022-09-27T22:19:16.673Z,1.38
2022-09-27T22:21:45.526Z,0.80
2022-09-27T22:24:17.058Z,0.90
2022-09-27T22:26:49.269Z,1.08
2022-09-27T22:29:17.865Z,0.63
2022-09-27T22:31:47.684Z,0.80
2022-09-27T22:34:28.704Z,1.15
2022-09-27T22:36:58.976Z,1.25
2022-09-27T22:39:27.297Z,0.90
2022-09-27T22:41:55.474Z,1.05
2022-09-27T22:44:24.231Z,1.05
2022-09-27T22:46:54.016Z,0.60
2022-09-27T22:49:22.815Z,0.90
2022-09-27T22:51:51.001Z,0.80
2022-09-27T22:54:19.246Z,0.68
2022-09-27T22:56:47.412Z,0.60
2022-09-27T22:59:15.700Z,0.60
2022-09-27T23:01:43.931Z,0.70
2022-09-27T23:04:14.062Z,0.50
2022-09-27T23:06:42.775Z,0.80
2022-09-27T23:09:11.239Z,0.90
2022-09-27T23:11:39.413Z,0.80
2022-09-27T23:14:09.072Z,0.90
2022-09-27T23:16:38.515Z,0.80
2022-09-27T23:19:08.201Z,0.70
2022-09-27T23:21:37.882Z,0.80
2022-09-27T23:24:06.567Z,0.90
2022-09-27T23:26:34.736Z,0.73
2022-09-27T23:29:04.114Z,1.15
2022-09-27T23:31:34.091Z,0.80
2022-09-27T23:34:05.322Z,0.90
2022-09-27T23:36:33.593Z,1.25
2022-09-27T23:39:03.148Z,1.40
2022-09-27T23:41:31.302Z,1.05
2022-09-27T23:43:59.557Z,1.15
2022-09-27T23:46:28.397Z,1.15
2022-09-27T23:48:58.904Z,1.58
2022-09-27T23:51:27.263Z,1.25
2022-09-27T23:53:57.083Z,1.52
2022-09-27T23:56:27.162Z,2.25
2022-09-27T23:58:55.349Z,2.80
